Latest Weather Observations for North Head

IDN60901

Issued at 8:41 am EDT Friday 22 January 2021 (issued every 10 minutes, with the page automatically refreshed every 10 minutes)

About weather observations | Map of Sydney area stations | Latest observations for Sydney area | Other Formats
Station Details ID: 066197 Name: NORTH HEAD Lat: -33.82 Lon: 151.30 Height: 90.0 m
Data from the previous 72 hours. | See also: Recent months at North Head
Date/Time
EDT
Temp
°C
App
Temp
°C
Dew
Point
°C
Rel
Hum
%
Delta-T
°C
Wind Press
QNH
hPa
Press
MSL
hPa
Rain since
9am
mm
Dir  Spd
km/h
Gust
km/h
Spd
kts
Gust
kts
22/08:30am - - - - - N 15 20 8 11 - - -
22/08:00am - - - - - N 15 20 8 11 - - -
22/07:30am - - - - - NNE 17 24 9 13 - - -
22/07:00am - - - - - NNE 13 20 7 11 - - -
22/06:30am - - - - - NNE 13 20 7 11 - - -
22/06:00am - - - - - N 11 15 6 8 - - -
22/05:30am - - - - - N 9 13 5 7 - - -
22/05:00am - - - - - N 11 17 6 9 - - -
22/04:30am - - - - - N 11 19 6 10 - - -
22/04:00am - - - - - NNE 13 20 7 11 - - -
22/03:30am - - - - - NNE 19 28 10 15 - - -
22/03:00am - - - - - NNE 17 26 9 14 - - -
22/02:30am - - - - - NNE 19 26 10 14 - - -
22/02:00am - - - - - NNE 19 28 10 15 - - -
22/01:30am - - - - - NNE 20 32 11 17 - - -
22/01:00am - - - - - NNE 19 33 10 18 - - -
22/12:30am - - - - - NNE 20 30 11 16 - - -
22/12:00am - - - - - NNE 24 35 13 19 - - -
 
Date/Time
EDT
Temp
°C
App
Temp
°C
Dew
Point
°C
Rel
Hum
%
Delta-T
°C
Wind Press
QNH
hPa
Press
MSL
hPa
Rain since
9am
mm
Dir  Spd
km/h
Gust
km/h
Spd
kts
Gust
kts
21/11:30pm - - - - - NNE 22 35 12 19 - - -
21/11:00pm - - - - - NNE 28 44 15 24 - - -
21/10:30pm - - - - - NNE 26 37 14 20 - - -
21/10:00pm - - - - - NNE 22 43 12 23 - - -
21/09:30pm - - - - - NNE 24 35 13 19 - - -
21/09:00pm - - - - - NNE 22 33 12 18 - - -
21/08:30pm - - - - - NE 24 39 13 21 - - -
21/08:00pm - - - - - NE 22 37 12 20 - - -
21/07:30pm - - - - - NE 22 37 12 20 - - -
21/07:00pm - - - - - NE 24 37 13 20 - - -
21/06:30pm - - - - - NE 22 33 12 18 - - -
21/06:00pm - - - - - NE 24 37 13 20 - - -
21/05:30pm - - - - - NE 24 35 13 19 - - -
21/05:00pm - - - - - NE 24 35 13 19 - - -
21/04:30pm - - - - - ENE 22 33 12 18 - - -
21/04:00pm - - - - - ENE 20 32 11 17 - - -
21/03:30pm - - - - - ENE 19 28 10 15 - - -
21/03:00pm - - - - - ENE 19 28 10 15 - - -
21/02:30pm - - - - - ENE 19 28 10 15 - - -
21/02:00pm - - - - - ENE 17 26 9 14 - - -
21/01:30pm - - - - - ENE 17 24 9 13 - - -
21/01:00pm - - - - - E 15 22 8 12 - - -
21/12:30pm - - - - - ENE 17 22 9 12 - - -
21/12:00pm - - - - - E 15 22 8 12 - - -
21/11:30am - - - - - NE 11 19 6 10 - - -
21/11:00am - - - - - NE 13 22 7 12 - - -
21/10:30am - - - - - NE 7 11 4 6 - - -
21/10:00am - - - - - W 4 6 2 3 - - -
21/09:30am - - - - - W 7 9 4 5 - - -
21/09:00am - - - - - W 7 13 4 7 - - -
21/08:30am - - - - - W 11 15 6 8 - - -
21/08:00am - - - - - W 9 13 5 7 - - -
21/07:30am - - - - - W 9 11 5 6 - - -
21/07:00am - - - - - W 11 11 6 6 - - -
21/06:30am - - - - - W 9 11 5 6 - - -
21/06:00am - - - - - W 11 13 6 7 - - -
21/05:30am - - - - - W 9 11 5 6 - - -
21/05:00am - - - - - W 9 9 5 5 - - -
21/04:30am - - - - - WNW 7 9 4 5 - - -
21/04:00am - - - - - W 9 11 5 6 - - -
21/03:30am - - - - - W 9 9 5 5 - - -
21/03:00am - - - - - W 7 9 4 5 - - -
21/02:30am - - - - - WSW 7 7 4 4 - - -
21/02:00am - - - - - W 9 9 5 5 - - -
21/01:30am - - - - - W 6 7 3 4 - - -
21/01:00am - - - - - W 4 6 2 3 - - -
21/12:30am - - - - - NW 2 4 1 2 - - -
21/12:00am - - - - - NW 4 4 2 2 - - -
 
Date/Time
EDT
Temp
°C
App
Temp
°C
Dew
Point
°C
Rel
Hum
%
Delta-T
°C
Wind Press
QNH
hPa
Press
MSL
hPa
Rain since
9am
mm
Dir  Spd
km/h
Gust
km/h
Spd
kts
Gust
kts
20/11:30pm - - - - - ESE 6 9 3 5 - - -
20/11:00pm - - - - - SE 4 7 2 4 - - -
20/10:30pm - - - - - ENE 2 6 1 3 - - -
20/10:00pm - - - - - ESE 6 9 3 5 - - -
20/09:30pm - - - - - ESE 6 9 3 5 - - -
20/09:00pm - - - - - ESE 7 9 4 5 - - -
20/08:30pm - - - - - ESE 9 13 5 7 - - -
20/08:00pm - - - - - SE 11 15 6 8 - - -
20/07:30pm - - - - - SE 7 11 4 6 - - -
20/07:00pm - - - - - SE 9 13 5 7 - - -
20/06:30pm - - - - - SE 9 15 5 8 - - -
20/06:00pm - - - - - SSE 13 17 7 9 - - -
20/05:30pm - - - - - SE 11 19 6 10 - - -
20/05:00pm - - - - - SE 15 20 8 11 - - -
20/04:30pm - - - - - SSE 13 24 7 13 - - -
20/04:00pm - - - - - SE 15 20 8 11 - - -
20/03:30pm - - - - - SSE 15 24 8 13 - - -
20/03:00pm - - - - - SSE 15 20 8 11 - - -
20/02:30pm - - - - - SSE 13 20 7 11 - - -
20/02:00pm - - - - - SSE 13 19 7 10 - - -
20/01:30pm - - - - - SSE 15 20 8 11 - - -
20/01:00pm - - - - - SSE 15 22 8 12 - - -
20/12:30pm - - - - - SSE 17 22 9 12 - - -
20/12:00pm - - - - - SSE 13 20 7 11 - - -
20/11:30am - - - - - SSE 13 20 7 11 - - -
20/11:00am - - - - - SSE 15 22 8 12 - - -
20/10:30am - - - - - SSE 17 22 9 12 - - -
20/10:00am - - - - - SSE 17 26 9 14 - - -
20/09:30am - - - - - S 13 20 7 11 - - -
20/09:00am - - - - - S 17 22 9 12 - - -
20/08:30am - - - - - SSE 19 28 10 15 - - -
20/08:00am - - - - - SSE 19 28 10 15 - - -
20/07:30am - - - - - SSE 17 24 9 13 - - -
20/07:00am - - - - - S 19 28 10 15 - - -
20/06:30am - - - - - SSE 19 26 10 14 - - -
20/06:00am - - - - - SSE 19 26 10 14 - - -
20/05:30am - - - - - SSE 17 30 9 16 - - -
20/05:00am - - - - - S 20 33 11 18 - - -
20/04:30am - - - - - SSE 20 28 11 15 - - -
20/04:00am - - - - - SSE 24 35 13 19 - - -
20/03:30am - - - - - S 26 37 14 20 - - -
20/03:00am - - - - - SSE 15 20 8 11 - - -
20/02:30am - - - - - SSE 24 35 13 19 - - -
20/02:00am - - - - - SSE 17 22 9 12 - - -
20/01:30am - - - - - SSE 9 17 5 9 - - -
20/01:00am - - - - - SSE 15 22 8 12 - - -
20/12:30am - - - - - S 19 30 10 16 - - -
20/12:00am - - - - - SSE 7 17 4 9 - - -
 
Date/Time
EDT
Temp
°C
App
Temp
°C
Dew
Point
°C
Rel
Hum
%
Delta-T
°C
Wind Press
QNH
hPa
Press
MSL
hPa
Rain since
9am
mm
Dir  Spd
km/h
Gust
km/h
Spd
kts
Gust
kts
19/11:30pm - - - - - SSE 19 28 10 15 - - -
19/11:00pm - - - - - SSE 22 30 12 16 - - -
19/10:30pm - - - - - SSE 26 35 14 19 - - -
19/10:00pm - - - - - SSE 19 32 10 17 - - -
19/09:30pm - - - - - SSE 24 33 13 18 - - -
19/09:00pm - - - - - S 22 39 12 21 - - -
19/08:30pm - - - - - SSE 22 46 12 25 - - -
19/08:00pm - - - - - SSE 24 35 13 19 - - -
19/07:30pm - - - - - SSE 24 39 13 21 - - -
19/07:00pm - - - - - SSE 32 44 17 24 - - -
19/06:45pm - - - - - SSE 30 50 16 27 - - -
19/06:30pm - - - - - SSE 30 43 16 23 - - -
19/06:00pm - - - - - SSE 24 37 13 20 - - -
19/05:30pm - - - - - SSE 26 37 14 20 - - -
19/05:00pm - - - - - SSE 26 39 14 21 - - -
19/04:30pm - - - - - S 28 39 15 21 - - -
19/04:00pm - - - - - S 30 39 16 21 - - -
19/03:30pm - - - - - S 26 41 14 22 - - -
19/03:00pm - - - - - S 30 44 16 24 - - -
19/02:30pm - - - - - SSE 32 44 17 24 - - -
19/02:00pm - - - - - S 28 39 15 21 - - -
19/01:30pm - - - - - S 30 44 16 24 - - -
19/01:00pm - - - - - S 28 44 15 24 - - -
19/12:30pm - - - - - SSE 28 39 15 21 - - -
19/12:05pm - - - - - S 28 46 15 25 - - -
19/12:00pm - - - - - S 28 43 15 23 - - -
19/11:30am - - - - - S 32 43 17 23 - - -
19/11:00am - - - - - S 32 48 17 26 - - -
19/10:30am - - - - - S 33 50 18 27 - - -
19/10:00am - - - - - S 35 50 19 27 - - -
19/09:30am - - - - - SSE 37 52 20 28 - - -
19/09:00am - - - - - SSE 32 46 17 25 - - -

Latest Capital City Observations: Canberra | Sydney | Melbourne | Brisbane | Adelaide | Perth | Hobart | Darwin

Other formats

Comma delimited format used in spreadsheet applications
http://www.bom.gov.au/fwo/IDN60901/IDN60901.95768.axf

JavaScript Object Notation format (JSON) in row-major order
http://www.bom.gov.au/fwo/IDN60901/IDN60901.95768.json

Data quality

Most of these data are generated automatically and are frequently updated. Quality checks on data are not normally performed. It is possible for incorrect values to appear. Refer to information at About Latest Weather Observations and please check the disclaimer before using these data.